Flight Track Log - Related Links

Times and Time Zones

All times are in EDT time to prevent confusion due to time zone crossing. See the SWA1969 flight status page for this flight to view local times or setup timezone preferences in your user account.

Time Position Orientation Groundspeed Altitude Reporting Facility
EDT Latitude Longitude Course Direction KTS km/h feet Rate Location/Type
Sun 08:46:35 35.3789 -97.5944 62° Northeast 137 254 2,300  Level Fort Worth Center
Sun 08:47:19 35.3497 -97.5817 160° South 181 335 4,100 2,827 Climbing Fort Worth Center
Sun 08:48:19 35.3686 -97.5128 71° East 271 502 7,200 3,534 Climbing Fort Worth Center
Sun 08:50:02 35.4492 -97.3550 58° Northeast 311 576 13,700 3,695 Climbing Kansas City Center
Sun 08:51:03 35.4992 -97.2481 60° Northeast 341 631 17,300 3,339 Climbing Kansas City Center
Sun 08:52:00 35.7171 -96.8656 62° Northeast  Level FlightAware Approximate
Sun 08:52:06 35.5536 -97.1350 59° Northeast 363 673 20,600  Level Kansas City Center
Sun 08:53:07 35.6122 -97.0139 59° Northeast 395 732 23,600 2,705 Climbing Kansas City Center
Sun 08:54:08 35.6744 -96.8858 59° Northeast 427 790 26,100 2,628 Climbing Kansas City Center
Sun 08:55:08 35.7514 -96.7258 59° Northeast 449 832 28,900 2,410 Climbing Kansas City Center
Sun 08:56:10 35.8175 -96.5872 60° Northeast 464 859 31,000 1,902 Climbing Kansas City Center
Sun 08:57:11 35.8850 -96.4472 59° Northeast 474 877 32,800 976 Climbing Kansas City Center
Sun 08:58:13 35.9514 -96.3072 60° Northeast 489 906 33,000 1,024 Climbing Kansas City Center
Sun 08:59:14 36.0200 -96.1619 60° Northeast 490 908 34,900 1,835 Climbing Kansas City Center
Sun 09:00:14 36.0892 -96.0161 60° Northeast 489 906 36,700 1,686 Climbing Kansas City Center
Sun 09:01:15 36.1575 -95.8694 60° Northeast 491 909 38,300 1,488 Climbing Kansas City Center
Sun 09:02:15 36.2292 -95.7181 60° Northeast 493 912 39,700 1,339 Climbing Kansas City Center
Sun 09:03:16 36.3000 -95.5750 58° Northeast 489 906 41,000 629 Climbing Kansas City Center
Sun 09:04:19 36.3694 -95.4311 59° Northeast 489 906 41,000  Level Kansas City Center
Sun 09:05:18 36.4372 -95.2853 60° Northeast 488 904 41,000  Level Kansas City Center
Sun 09:06:19 36.5214 -95.1133 59° Northeast 487 901 41,000  Level Kansas City Center
Sun 09:07:22 36.5825 -94.9828 60° Northeast 489 906 41,000  Level Kansas City Center
Sun 09:08:22 36.6522 -94.8364 59° Northeast 490 908 41,000  Level Kansas City Center
Sun 09:09:25 36.7203 -94.6903 60° Northeast 488 904 41,000  Level Kansas City Center
Sun 09:10:25 36.7886 -94.5442 60° Northeast 488 904 41,000  Level Kansas City Center
Sun 09:11:25 36.8872 -94.3889 52° Northeast 477 884 41,000  Level Kansas City Center
Sun 09:12:26 36.9908 -94.2881 38° Northeast 472 874 41,000  Level Kansas City Center
Sun 09:13:29 37.0961 -94.1861 38° Northeast 476 882 41,000  Level Kansas City Center
Sun 09:14:30 37.1914 -94.0939 38° Northeast 474 877 41,000  Level Kansas City Center
Sun 09:15:31 37.2947 -93.9922 38° Northeast 471 872 41,000  Level Kansas City Center
Sun 09:16:32 37.3975 -93.8894 38° Northeast 470 871 41,000  Level Kansas City Center
Sun 09:17:32 37.5000 -93.7867 38° Northeast 469 869 41,000  Level Kansas City Center
Sun 09:18:35 37.6247 -93.6631 38° Northeast 472 874 41,000  Level Kansas City Center
Sun 09:19:36 37.7272 -93.5589 39° Northeast 471 872 41,000  Level Kansas City Center
Sun 09:20:35 37.8317 -93.4542 38° Northeast 474 877 41,000  Level Kansas City Center
Sun 09:21:37 37.9369 -93.3475 39° Northeast 479 887 41,000  Level Kansas City Center
Sun 09:22:40 38.0431 -93.2406 38° Northeast 482 893 41,000  Level Kansas City Center
Sun 09:23:39 38.1467 -93.1336 39° Northeast 479 887 41,000  Level Kansas City Center
Sun 09:24:42 38.2539 -93.0261 38° Northeast 483 895 41,000  Level Kansas City Center
Sun 09:25:43 38.3569 -92.9189 39° Northeast 478 885 41,000  Level Kansas City Center
Sun 09:26:44 38.4600 -92.8131 39° Northeast 473 875 41,000  Level Kansas City Center
Sun 09:27:44 38.5625 -92.7053 39° Northeast 472 874 41,000  Level Kansas City Center
Sun 09:28:45 38.6647 -92.6003 39° Northeast 469 869 41,000  Level Kansas City Center
Sun 09:29:47 38.7672 -92.4939 39° Northeast 468 867 41,000  Level Kansas City Center
Sun 09:30:50 38.8697 -92.3861 39° Northeast 470 871 41,000  Level Kansas City Center
Sun 09:31:51 38.9725 -92.2761 40° Northeast 474 877 41,000  Level Kansas City Center
Sun 09:32:52 39.0767 -92.1700 38° Northeast 475 880 41,000  Level Kansas City Center
Sun 09:33:54 39.1653 -92.0394 49° Northeast 490 908 41,000  Level Kansas City Center
Sun 09:34:55 39.2589 -91.8758 54° Northeast 493 912 41,000  Level Kansas City Center
Sun 09:35:54 39.3400 -91.7347 53° Northeast 495 917 41,000  Level Kansas City Center
Sun 09:36:58 39.4236 -91.6025 51° Northeast 488 904 41,000  Level Kansas City Center
Sun 09:37:59 39.5128 -91.4817 46° Northeast 477 884 41,000  Level Kansas City Center
Sun 09:39:00 39.6003 -91.3583 47° Northeast 473 875 41,000  Level Kansas City Center
Sun 09:40:00 39.6919 -91.2292 47° Northeast 471 872 41,000  Level Kansas City Center
Sun 09:41:04 39.7928 -91.0853 48° Northeast 470 871 41,000  Level Kansas City Center
Sun 09:42:05 39.8797 -90.9606 48° Northeast 469 869 41,000 -639 Level Kansas City Center
Sun 09:43:06 39.9675 -90.8356 47° Northeast 469 869 39,700 -1,884 Descending Kansas City Center
Sun 09:44:06 40.0536 -90.7103 48° Northeast 465 861 37,200 -2,585 Descending Kansas City Center
Sun 09:45:09 40.1408 -90.5842 48° Northeast 466 863 34,400 -2,972 Descending Kansas City Center
Sun 09:45:53 40.2111 -90.4839 47° Northeast 470 871 31,900 -1,943 Descending Chicago Center
Sun 09:46:54 40.3006 -90.3536 48° Northeast 478 885 31,000 -439 Descending Chicago Center
Sun 09:47:56 40.3889 -90.2233 48° Northeast 479 887 31,000 -537 Level Chicago Center
Sun 09:48:57 40.4783 -90.0911 48° Northeast 478 885 29,900 -1,756 Descending Chicago Center
Sun 09:49:59 40.5622 -89.9656 49° Northeast 465 861 27,400 -2,661 Descending Chicago Center
Sun 09:51:01 40.6567 -89.8144 50° Northeast 451 835 24,400 -2,049 Descending Chicago Center
Sun 09:52:02 40.7311 -89.6917 51° Northeast 432 800 23,200 -1,512 Descending Chicago Center
Sun 09:53:04 40.8008 -89.5714 53° Northeast 417 772 21,300 -1,935 Descending Chicago Center
Sun 09:54:06 40.8678 -89.4675 50° Northeast 404 748 19,200 -2,098 Descending Chicago Center
Sun 09:55:07 40.9475 -89.3356 51° Northeast 385 713 17,000 -1,073 Descending Chicago Center
Sun 09:56:09 41.0139 -89.2258 51° Northeast 382 708 17,000  Level Chicago Center
Sun 09:57:11 41.0844 -89.1069 52° Northeast 387 716 17,000 -829 Level Chicago Center
Sun 09:58:12 41.1492 -88.9967 52° Northeast 381 705 15,300 -1,805 Descending Chicago Center
Sun 09:59:14 41.2114 -88.8914 52° Northeast 368 681 13,300 -1,984 Descending Chicago Center
Sun 10:00:16 41.2700 -88.7894 53° Northeast 352 652 11,200 -1,548 Descending Chicago Center
Sun 10:01:18 41.3272 -88.6936 51° Northeast 333 616 10,100 -1,220 Descending Chicago Center
Sun 10:02:19 41.3778 -88.6072 52° Northeast 301 557 8,700 -1,366 Descending Chicago Center
Sun 10:03:21 41.4297 -88.5192 52° Northeast 302 560 7,300 -1,258 Descending Chicago Center
Sun 10:04:23 41.4706 -88.4028 65° Northeast 298 552 6,100 -1,073 Descending Chicago Center
Sun 10:05:24 41.4950 -88.2981 73° East 297 550 5,100 -537 Descending Chicago Center
Sun 10:06:26 41.5186 -88.1953 73° East 291 539 5,000 -48 Descending Chicago Center
Sun 10:07:28 41.5433 -88.0942 72° East 286 529 5,000  Level Chicago Center
Sun 10:08:30 41.5647 -88.0025 73° East 266 492 5,000  Level Chicago Center
Sun 10:09:31 41.5853 -87.9142 73° East 254 470 5,000  Level Chicago Center
Sun 10:10:33 41.6067 -87.8253 72° East 252 467 5,000  Level Chicago Center
Sun 10:11:35 41.5947 -87.7414 101° East 241 446 5,000 -341 Level Chicago Center
Sun 10:12:36 41.5764 -87.6650 108° East 225 417 4,300 -878 Descending Chicago Center
Sun 10:13:38 41.5914 -87.5847 76° East 207 383 3,200 -629 Descending Chicago Center
Sun 10:14:40 41.6317 -87.5692 16° North 199 369 3,000 -98 Descending Chicago Center
Sun 10:15:41 41.6703 -87.5936 335° Northwest 171 317 3,000 -49 Level Chicago Center
Sun 10:16:42 41.7000 -87.6333 315° West 156 290 2,900 -446 Descending Chicago TRACON
Sun 10:17:42 41.7333 -87.6833 312° West 142 262 2,100 -737 Descending Chicago TRACON
Sun 10:18:36 41.7500 -87.7000 323° Northwest 115 212 1,500 -667 Descending Chicago TRACON

Login

Don't have an account? Register now (free) for customized features, flight alerts, and more!